sensor_id;sensor_type;location;lat;lon;timestamp;P1;durP1;ratioP1;P2;durP2;ratioP2
25349;SDS011;13302;48.796;11.978;2022-09-03T00:00:55;0.90;;;0.90;;
25349;SDS011;13302;48.796;11.978;2022-09-03T00:03:51;1.30;;;1.20;;
25349;SDS011;13302;48.796;11.978;2022-09-03T00:06:44;0.90;;;0.90;;
25349;SDS011;13302;48.796;11.978;2022-09-03T00:09:40;0.90;;;0.90;;
25349;SDS011;13302;48.796;11.978;2022-09-03T00:12:32;1.60;;;1.10;;
25349;SDS011;13302;48.796;11.978;2022-09-03T00:15:25;1.10;;;1.10;;
25349;SDS011;13302;48.796;11.978;2022-09-03T00:18:13;1.80;;;1.50;;
25349;SDS011;13302;48.796;11.978;2022-09-03T00:21:11;1.30;;;1.20;;
25349;SDS011;13302;48.796;11.978;2022-09-03T00:24:04;1.90;;;1.20;;
25349;SDS011;13302;48.796;11.978;2022-09-03T00:27:00;0.93;;;0.93;;
25349;SDS011;13302;48.796;11.978;2022-09-03T00:30:08;1.30;;;1.30;;
25349;SDS011;13302;48.796;11.978;2022-09-03T00:33:04;1.20;;;1.20;;
25349;SDS011;13302;48.796;11.978;2022-09-03T00:38:49;1.20;;;1.10;;
25349;SDS011;13302;48.796;11.978;2022-09-03T00:41:40;1.33;;;1.30;;
25349;SDS011;13302;48.796;11.978;2022-09-03T00:51:15;1.10;;;1.00;;
25349;SDS011;13302;48.796;11.978;2022-09-03T00:57:37;1.73;;;0.90;;
25349;SDS011;13302;48.796;11.978;2022-09-03T01:00:48;1.30;;;1.30;;
25349;SDS011;13302;48.796;11.978;2022-09-03T01:03:40;1.53;;;1.23;;
25349;SDS011;13302;48.796;11.978;2022-09-03T01:06:42;1.17;;;1.10;;
25349;SDS011;13302;48.796;11.978;2022-09-03T01:16:27;1.30;;;1.30;;
25349;SDS011;13302;48.796;11.978;2022-09-03T01:26:27;1.50;;;1.17;;
25349;SDS011;13302;48.796;11.978;2022-09-03T01:29:31;1.10;;;1.10;;
25349;SDS011;13302;48.796;11.978;2022-09-03T01:32:34;1.30;;;1.20;;
25349;SDS011;13302;48.796;11.978;2022-09-03T01:38:33;1.47;;;1.37;;
25349;SDS011;13302;48.796;11.978;2022-09-03T01:45:10;1.50;;;1.40;;
25349;SDS011;13302;48.796;11.978;2022-09-03T01:54:17;1.63;;;1.37;;
25349;SDS011;13302;48.796;11.978;2022-09-03T01:57:31;1.20;;;1.20;;
25349;SDS011;13302;48.796;11.978;2022-09-03T02:00:28;1.30;;;1.30;;
25349;SDS011;13302;48.796;11.978;2022-09-03T02:03:18;1.47;;;1.33;;
25349;SDS011;13302;48.796;11.978;2022-09-03T02:06:07;1.27;;;1.17;;
25349;SDS011;13302;48.796;11.978;2022-09-03T02:08:54;1.30;;;1.30;;
25349;SDS011;13302;48.796;11.978;2022-09-03T02:11:41;1.50;;;1.50;;
25349;SDS011;13302;48.796;11.978;2022-09-03T02:14:32;2.37;;;1.30;;
25349;SDS011;13302;48.796;11.978;2022-09-03T02:17:20;1.47;;;1.37;;
25349;SDS011;13302;48.796;11.978;2022-09-03T02:20:08;1.43;;;1.33;;
25349;SDS011;13302;48.796;11.978;2022-09-03T02:22:57;3.50;;;1.40;;
25349;SDS011;13302;48.796;11.978;2022-09-03T02:25:47;1.33;;;1.33;;
25349;SDS011;13302;48.796;11.978;2022-09-03T02:28:38;1.30;;;1.30;;
25349;SDS011;13302;48.796;11.978;2022-09-03T02:31:25;1.80;;;1.40;;
25349;SDS011;13302;48.796;11.978;2022-09-03T02:34:13;1.43;;;1.27;;
25349;SDS011;13302;48.796;11.978;2022-09-03T02:37:00;1.60;;;1.50;;
25349;SDS011;13302;48.796;11.978;2022-09-03T02:39:58;2.10;;;1.30;;
25349;SDS011;13302;48.796;11.978;2022-09-03T02:42:45;1.70;;;1.30;;
25349;SDS011;13302;48.796;11.978;2022-09-03T02:45:33;1.40;;;1.30;;
25349;SDS011;13302;48.796;11.978;2022-09-03T02:48:26;1.60;;;1.50;;
25349;SDS011;13302;48.796;11.978;2022-09-03T02:51:13;1.33;;;1.30;;
25349;SDS011;13302;48.796;11.978;2022-09-03T02:54:00;1.40;;;1.40;;
25349;SDS011;13302;48.796;11.978;2022-09-03T02:56:48;1.33;;;1.23;;
25349;SDS011;13302;48.796;11.978;2022-09-03T02:59:35;1.80;;;1.43;;
25349;SDS011;13302;48.796;11.978;2022-09-03T03:02:22;1.67;;;1.67;;
25349;SDS011;13302;48.796;11.978;2022-09-03T03:05:10;1.40;;;1.40;;
25349;SDS011;13302;48.796;11.978;2022-09-03T03:08:07;2.30;;;1.40;;
25349;SDS011;13302;48.796;11.978;2022-09-03T03:10:55;1.50;;;1.50;;
25349;SDS011;13302;48.796;11.978;2022-09-03T03:13:44;1.47;;;1.40;;
25349;SDS011;13302;48.796;11.978;2022-09-03T03:16:32;1.53;;;1.43;;
25349;SDS011;13302;48.796;11.978;2022-09-03T03:19:19;1.20;;;1.20;;
25349;SDS011;13302;48.796;11.978;2022-09-03T03:22:06;1.10;;;1.10;;
25349;SDS011;13302;48.796;11.978;2022-09-03T03:24:53;1.10;;;1.10;;
25349;SDS011;13302;48.796;11.978;2022-09-03T03:27:42;1.80;;;1.17;;
25349;SDS011;13302;48.796;11.978;2022-09-03T03:30:29;1.20;;;1.20;;
25349;SDS011;13302;48.796;11.978;2022-09-03T03:33:17;2.00;;;1.40;;
25349;SDS011;13302;48.796;11.978;2022-09-03T03:36:05;1.20;;;1.20;;
25349;SDS011;13302;48.796;11.978;2022-09-03T03:38:54;1.20;;;1.20;;
25349;SDS011;13302;48.796;11.978;2022-09-03T03:41:42;1.40;;;1.30;;
25349;SDS011;13302;48.796;11.978;2022-09-03T03:44:29;1.80;;;1.40;;
25349;SDS011;13302;48.796;11.978;2022-09-03T03:47:16;1.27;;;1.27;;
25349;SDS011;13302;48.796;11.978;2022-09-03T03:50:04;1.50;;;1.50;;
25349;SDS011;13302;48.796;11.978;2022-09-03T03:52:51;1.60;;;1.50;;
25349;SDS011;13302;48.796;11.978;2022-09-03T03:55:38;1.37;;;1.37;;
25349;SDS011;13302;48.796;11.978;2022-09-03T03:58:26;1.53;;;1.43;;
25349;SDS011;13302;48.796;11.978;2022-09-03T04:01:15;2.63;;;1.60;;
25349;SDS011;13302;48.796;11.978;2022-09-03T04:04:04;1.27;;;1.27;;
25349;SDS011;13302;48.796;11.978;2022-09-03T04:06:51;1.50;;;1.40;;
25349;SDS011;13302;48.796;11.978;2022-09-03T04:09:38;1.27;;;1.17;;
25349;SDS011;13302;48.796;11.978;2022-09-03T04:12:25;1.47;;;1.40;;
25349;SDS011;13302;48.796;11.978;2022-09-03T04:15:12;1.27;;;1.23;;
25349;SDS011;13302;48.796;11.978;2022-09-03T04:17:59;1.07;;;1.07;;
25349;SDS011;13302;48.796;11.978;2022-09-03T04:20:46;1.30;;;1.30;;
25349;SDS011;13302;48.796;11.978;2022-09-03T04:23:34;1.27;;;1.20;;
25349;SDS011;13302;48.796;11.978;2022-09-03T04:26:24;1.40;;;1.30;;
25349;SDS011;13302;48.796;11.978;2022-09-03T04:29:16;1.43;;;1.33;;
25349;SDS011;13302;48.796;11.978;2022-09-03T04:32:04;1.57;;;1.47;;
25349;SDS011;13302;48.796;11.978;2022-09-03T04:35:09;1.50;;;1.40;;
25349;SDS011;13302;48.796;11.978;2022-09-03T04:37:57;1.90;;;1.40;;
25349;SDS011;13302;48.796;11.978;2022-09-03T04:40:50;1.40;;;1.30;;
25349;SDS011;13302;48.796;11.978;2022-09-03T04:43:38;1.63;;;1.50;;
25349;SDS011;13302;48.796;11.978;2022-09-03T04:46:28;1.43;;;1.33;;
25349;SDS011;13302;48.796;11.978;2022-09-03T04:49:19;1.17;;;1.17;;
25349;SDS011;13302;48.796;11.978;2022-09-03T04:52:06;1.17;;;1.17;;
25349;SDS011;13302;48.796;11.978;2022-09-03T04:54:53;1.20;;;1.20;;
25349;SDS011;13302;48.796;11.978;2022-09-03T04:57:40;1.27;;;1.20;;
25349;SDS011;13302;48.796;11.978;2022-09-03T05:00:28;1.30;;;1.30;;
25349;SDS011;13302;48.796;11.978;2022-09-03T05:03:15;1.50;;;1.40;;
25349;SDS011;13302;48.796;11.978;2022-09-03T05:06:03;1.47;;;1.43;;
25349;SDS011;13302;48.796;11.978;2022-09-03T05:08:53;1.40;;;1.40;;
25349;SDS011;13302;48.796;11.978;2022-09-03T05:11:41;1.50;;;1.40;;
25349;SDS011;13302;48.796;11.978;2022-09-03T05:14:28;1.30;;;1.30;;
25349;SDS011;13302;48.796;11.978;2022-09-03T05:17:15;1.70;;;1.70;;
25349;SDS011;13302;48.796;11.978;2022-09-03T05:20:02;1.50;;;1.50;;
25349;SDS011;13302;48.796;11.978;2022-09-03T05:22:49;2.17;;;1.80;;
25349;SDS011;13302;48.796;11.978;2022-09-03T05:25:36;1.40;;;1.40;;
25349;SDS011;13302;48.796;11.978;2022-09-03T05:28:24;2.70;;;1.53;;
25349;SDS011;13302;48.796;11.978;2022-09-03T05:31:17;1.60;;;1.50;;
25349;SDS011;13302;48.796;11.978;2022-09-03T05:34:05;4.67;;;1.60;;
25349;SDS011;13302;48.796;11.978;2022-09-03T05:36:53;1.60;;;1.60;;
25349;SDS011;13302;48.796;11.978;2022-09-03T05:39:42;1.70;;;1.30;;
25349;SDS011;13302;48.796;11.978;2022-09-03T05:42:29;1.33;;;1.33;;
25349;SDS011;13302;48.796;11.978;2022-09-03T05:45:17;1.60;;;1.60;;
25349;SDS011;13302;48.796;11.978;2022-09-03T05:48:04;1.93;;;1.40;;
25349;SDS011;13302;48.796;11.978;2022-09-03T05:50:58;1.53;;;1.43;;
25349;SDS011;13302;48.796;11.978;2022-09-03T05:53:50;1.53;;;1.50;;
25349;SDS011;13302;48.796;11.978;2022-09-03T05:56:39;2.20;;;1.30;;
25349;SDS011;13302;48.796;11.978;2022-09-03T05:59:26;2.03;;;1.67;;
25349;SDS011;13302;48.796;11.978;2022-09-03T06:02:13;1.70;;;1.60;;
25349;SDS011;13302;48.796;11.978;2022-09-03T06:05:01;1.43;;;1.33;;
25349;SDS011;13302;48.796;11.978;2022-09-03T06:07:48;3.07;;;1.53;;
25349;SDS011;13302;48.796;11.978;2022-09-03T06:10:35;1.30;;;1.30;;
25349;SDS011;13302;48.796;11.978;2022-09-03T06:13:26;2.20;;;1.50;;
25349;SDS011;13302;48.796;11.978;2022-09-03T06:16:15;1.50;;;1.40;;
25349;SDS011;13302;48.796;11.978;2022-09-03T06:19:02;1.40;;;1.30;;
25349;SDS011;13302;48.796;11.978;2022-09-03T06:21:52;1.23;;;1.23;;
25349;SDS011;13302;48.796;11.978;2022-09-03T06:24:40;1.63;;;1.40;;
25349;SDS011;13302;48.796;11.978;2022-09-03T06:27:27;1.80;;;1.70;;
25349;SDS011;13302;48.796;11.978;2022-09-03T06:30:15;2.23;;;1.47;;
25349;SDS011;13302;48.796;11.978;2022-09-03T06:33:02;1.40;;;1.30;;
25349;SDS011;13302;48.796;11.978;2022-09-03T06:35:55;1.07;;;1.07;;
25349;SDS011;13302;48.796;11.978;2022-09-03T06:38:44;1.13;;;1.13;;
25349;SDS011;13302;48.796;11.978;2022-09-03T06:41:32;1.23;;;1.23;;
25349;SDS011;13302;48.796;11.978;2022-09-03T06:44:21;1.40;;;1.40;;
25349;SDS011;13302;48.796;11.978;2022-09-03T06:47:08;1.80;;;1.30;;
25349;SDS011;13302;48.796;11.978;2022-09-03T06:49:55;1.93;;;1.40;;
25349;SDS011;13302;48.796;11.978;2022-09-03T06:52:41;1.50;;;1.40;;
25349;SDS011;13302;48.796;11.978;2022-09-03T06:55:28;1.40;;;1.30;;
25349;SDS011;13302;48.796;11.978;2022-09-03T06:58:16;2.20;;;1.40;;
25349;SDS011;13302;48.796;11.978;2022-09-03T07:01:07;1.13;;;1.13;;
25349;SDS011;13302;48.796;11.978;2022-09-03T07:04:17;1.50;;;1.40;;
25349;SDS011;13302;48.796;11.978;2022-09-03T07:07:06;1.67;;;1.13;;
25349;SDS011;13302;48.796;11.978;2022-09-03T07:09:58;1.17;;;1.10;;
25349;SDS011;13302;48.796;11.978;2022-09-03T07:12:46;1.30;;;1.20;;
25349;SDS011;13302;48.796;11.978;2022-09-03T07:15:33;1.77;;;1.20;;
25349;SDS011;13302;48.796;11.978;2022-09-03T07:18:20;1.87;;;1.60;;
25349;SDS011;13302;48.796;11.978;2022-09-03T07:21:08;1.87;;;1.77;;
25349;SDS011;13302;48.796;11.978;2022-09-03T07:23:57;1.53;;;1.53;;
25349;SDS011;13302;48.796;11.978;2022-09-03T07:26:45;2.83;;;1.50;;
25349;SDS011;13302;48.796;11.978;2022-09-03T07:29:32;2.00;;;1.90;;
25349;SDS011;13302;48.796;11.978;2022-09-03T07:32:19;3.47;;;2.40;;
25349;SDS011;13302;48.796;11.978;2022-09-03T07:35:06;2.50;;;2.30;;
25349;SDS011;13302;48.796;11.978;2022-09-03T07:37:54;1.90;;;1.70;;
25349;SDS011;13302;48.796;11.978;2022-09-03T07:40:41;1.60;;;1.50;;
25349;SDS011;13302;48.796;11.978;2022-09-03T07:43:32;1.23;;;1.23;;
25349;SDS011;13302;48.796;11.978;2022-09-03T07:46:22;1.30;;;1.20;;
25349;SDS011;13302;48.796;11.978;2022-09-03T07:49:10;1.50;;;1.20;;
25349;SDS011;13302;48.796;11.978;2022-09-03T07:51:57;1.20;;;1.20;;
25349;SDS011;13302;48.796;11.978;2022-09-03T07:54:44;1.57;;;1.47;;
25349;SDS011;13302;48.796;11.978;2022-09-03T07:57:31;1.30;;;1.20;;
25349;SDS011;13302;48.796;11.978;2022-09-03T08:00:18;2.13;;;1.30;;
25349;SDS011;13302;48.796;11.978;2022-09-03T08:03:05;2.03;;;1.40;;
25349;SDS011;13302;48.796;11.978;2022-09-03T08:05:54;2.60;;;1.37;;
25349;SDS011;13302;48.796;11.978;2022-09-03T08:08:46;1.13;;;1.13;;
25349;SDS011;13302;48.796;11.978;2022-09-03T08:11:37;1.77;;;1.57;;
25349;SDS011;13302;48.796;11.978;2022-09-03T08:14:25;1.30;;;1.30;;
25349;SDS011;13302;48.796;11.978;2022-09-03T08:17:12;1.40;;;1.30;;
25349;SDS011;13302;48.796;11.978;2022-09-03T08:19:59;1.10;;;1.10;;
25349;SDS011;13302;48.796;11.978;2022-09-03T08:22:46;2.20;;;1.40;;
25349;SDS011;13302;48.796;11.978;2022-09-03T08:25:35;1.20;;;1.10;;
25349;SDS011;13302;48.796;11.978;2022-09-03T08:28:22;1.30;;;1.20;;
25349;SDS011;13302;48.796;11.978;2022-09-03T08:31:10;1.20;;;1.20;;
25349;SDS011;13302;48.796;11.978;2022-09-03T08:34:00;1.40;;;1.30;;
25349;SDS011;13302;48.796;11.978;2022-09-03T08:36:52;1.87;;;1.27;;
25349;SDS011;13302;48.796;11.978;2022-09-03T08:39:40;1.47;;;1.40;;
25349;SDS011;13302;48.796;11.978;2022-09-03T08:45:35;1.13;;;1.13;;
25349;SDS011;13302;48.796;11.978;2022-09-03T08:48:23;1.10;;;1.07;;
25349;SDS011;13302;48.796;11.978;2022-09-03T08:51:13;1.27;;;1.23;;
25349;SDS011;13302;48.796;11.978;2022-09-03T08:54:02;1.30;;;1.20;;
25349;SDS011;13302;48.796;11.978;2022-09-03T08:56:51;1.13;;;1.13;;
25349;SDS011;13302;48.796;11.978;2022-09-03T08:59:40;1.10;;;1.10;;
25349;SDS011;13302;48.796;11.978;2022-09-03T09:02:42;1.30;;;1.30;;
25349;SDS011;13302;48.796;11.978;2022-09-03T09:15:42;1.10;;;1.10;;
25349;SDS011;13302;48.796;11.978;2022-09-03T09:18:58;1.30;;;1.23;;
25349;SDS011;13302;48.796;11.978;2022-09-03T09:22:08;1.30;;;1.30;;
25349;SDS011;13302;48.796;11.978;2022-09-03T09:25:14;1.07;;;1.07;;
25349;SDS011;13302;48.796;11.978;2022-09-03T09:30:55;1.10;;;1.10;;
25349;SDS011;13302;48.796;11.978;2022-09-03T09:33:43;1.23;;;1.23;;
25349;SDS011;13302;48.796;11.978;2022-09-03T09:36:35;1.10;;;1.10;;
25349;SDS011;13302;48.796;11.978;2022-09-03T09:39:38;1.03;;;1.03;;
25349;SDS011;13302;48.796;11.978;2022-09-03T09:42:27;1.33;;;1.10;;
25349;SDS011;13302;48.796;11.978;2022-09-03T09:45:16;1.30;;;1.20;;
25349;SDS011;13302;48.796;11.978;2022-09-03T09:48:05;1.50;;;1.20;;
25349;SDS011;13302;48.796;11.978;2022-09-03T09:51:03;1.10;;;1.10;;
25349;SDS011;13302;48.796;11.978;2022-09-03T09:57:06;1.07;;;1.07;;
25349;SDS011;13302;48.796;11.978;2022-09-03T10:00:07;1.53;;;1.20;;
25349;SDS011;13302;48.796;11.978;2022-09-03T10:02:59;1.50;;;1.17;;
25349;SDS011;13302;48.796;11.978;2022-09-03T10:06:00;0.90;;;0.90;;
25349;SDS011;13302;48.796;11.978;2022-09-03T10:09:16;1.60;;;1.10;;
25349;SDS011;13302;48.796;11.978;2022-09-03T10:12:21;1.27;;;1.27;;
25349;SDS011;13302;48.796;11.978;2022-09-03T10:21:26;1.13;;;1.13;;
25349;SDS011;13302;48.796;11.978;2022-09-03T10:27:25;1.30;;;1.30;;
25349;SDS011;13302;48.796;11.978;2022-09-03T10:30:12;1.90;;;1.20;;
25349;SDS011;13302;48.796;11.978;2022-09-03T10:33:21;1.30;;;1.30;;
25349;SDS011;13302;48.796;11.978;2022-09-03T10:36:21;1.20;;;1.20;;
25349;SDS011;13302;48.796;11.978;2022-09-03T10:42:17;1.30;;;1.30;;
25349;SDS011;13302;48.796;11.978;2022-09-03T10:45:12;1.20;;;1.20;;
25349;SDS011;13302;48.796;11.978;2022-09-03T10:51:05;1.37;;;1.37;;
25349;SDS011;13302;48.796;11.978;2022-09-03T11:03:04;1.90;;;1.10;;
25349;SDS011;13302;48.796;11.978;2022-09-03T11:06:10;1.47;;;1.30;;
25349;SDS011;13302;48.796;11.978;2022-09-03T11:09:09;1.13;;;1.10;;
25349;SDS011;13302;48.796;11.978;2022-09-03T11:12:07;1.40;;;1.40;;
25349;SDS011;13302;48.796;11.978;2022-09-03T11:15:12;1.90;;;1.47;;
25349;SDS011;13302;48.796;11.978;2022-09-03T11:18:47;1.63;;;1.63;;
25349;SDS011;13302;48.796;11.978;2022-09-03T11:21:30;1.70;;;1.67;;
25349;SDS011;13302;48.796;11.978;2022-09-03T11:24:27;1.63;;;1.50;;
25349;SDS011;13302;48.796;11.978;2022-09-03T11:27:34;1.50;;;1.40;;
25349;SDS011;13302;48.796;11.978;2022-09-03T11:30:31;1.10;;;1.10;;
25349;SDS011;13302;48.796;11.978;2022-09-03T11:33:37;1.60;;;1.60;;
25349;SDS011;13302;48.796;11.978;2022-09-03T11:36:32;1.70;;;1.60;;
25349;SDS011;13302;48.796;11.978;2022-09-03T11:42:36;1.70;;;1.70;;
25349;SDS011;13302;48.796;11.978;2022-09-03T11:48:19;1.63;;;1.63;;
25349;SDS011;13302;48.796;11.978;2022-09-03T11:51:28;1.80;;;1.70;;
25349;SDS011;13302;48.796;11.978;2022-09-03T11:57:13;1.43;;;1.43;;
25349;SDS011;13302;48.796;11.978;2022-09-03T12:03:04;1.30;;;1.30;;
25349;SDS011;13302;48.796;11.978;2022-09-03T12:06:02;1.40;;;1.40;;
25349;SDS011;13302;48.796;11.978;2022-09-03T12:09:05;1.57;;;1.50;;
25349;SDS011;13302;48.796;11.978;2022-09-03T12:18:40;1.70;;;1.70;;
25349;SDS011;13302;48.796;11.978;2022-09-03T12:21:28;1.80;;;1.70;;
25349;SDS011;13302;48.796;11.978;2022-09-03T12:24:18;1.57;;;1.57;;
25349;SDS011;13302;48.796;11.978;2022-09-03T12:27:05;1.63;;;1.63;;
25349;SDS011;13302;48.796;11.978;2022-09-03T12:30:13;1.90;;;1.80;;
25349;SDS011;13302;48.796;11.978;2022-09-03T12:33:06;1.83;;;1.73;;
25349;SDS011;13302;48.796;11.978;2022-09-03T12:35:54;1.67;;;1.63;;
25349;SDS011;13302;48.796;11.978;2022-09-03T12:38:45;1.80;;;1.80;;
25349;SDS011;13302;48.796;11.978;2022-09-03T12:42:03;2.00;;;1.90;;
25349;SDS011;13302;48.796;11.978;2022-09-03T12:44:52;2.17;;;2.07;;
25349;SDS011;13302;48.796;11.978;2022-09-03T12:47:40;1.67;;;1.67;;
25349;SDS011;13302;48.796;11.978;2022-09-03T12:50:28;2.00;;;1.90;;
25349;SDS011;13302;48.796;11.978;2022-09-03T12:53:20;1.80;;;1.80;;
25349;SDS011;13302;48.796;11.978;2022-09-03T12:56:10;2.10;;;2.00;;
25349;SDS011;13302;48.796;11.978;2022-09-03T12:59:03;1.73;;;1.63;;
25349;SDS011;13302;48.796;11.978;2022-09-03T13:01:57;1.73;;;1.73;;
25349;SDS011;13302;48.796;11.978;2022-09-03T13:04:51;1.60;;;1.60;;
25349;SDS011;13302;48.796;11.978;2022-09-03T13:07:39;1.90;;;1.80;;
25349;SDS011;13302;48.796;11.978;2022-09-03T13:10:31;1.70;;;1.70;;
25349;SDS011;13302;48.796;11.978;2022-09-03T13:29:09;1.63;;;1.60;;
25349;SDS011;13302;48.796;11.978;2022-09-03T13:32:25;1.70;;;1.60;;
25349;SDS011;13302;48.796;11.978;2022-09-03T13:38:57;1.57;;;1.57;;
25349;SDS011;13302;48.796;11.978;2022-09-03T13:41:54;1.60;;;1.60;;
25349;SDS011;13302;48.796;11.978;2022-09-03T13:44:49;2.07;;;2.00;;
25349;SDS011;13302;48.796;11.978;2022-09-03T13:54:04;1.90;;;1.80;;
25349;SDS011;13302;48.796;11.978;2022-09-03T13:57:00;1.73;;;1.73;;
25349;SDS011;13302;48.796;11.978;2022-09-03T14:03:05;2.73;;;2.50;;
25349;SDS011;13302;48.796;11.978;2022-09-03T14:11:47;1.47;;;1.47;;
25349;SDS011;13302;48.796;11.978;2022-09-03T14:14:44;2.50;;;2.40;;
25349;SDS011;13302;48.796;11.978;2022-09-03T14:17:41;2.07;;;1.97;;
25349;SDS011;13302;48.796;11.978;2022-09-03T14:20:56;2.50;;;2.40;;
25349;SDS011;13302;48.796;11.978;2022-09-03T14:26:56;1.90;;;1.90;;
25349;SDS011;13302;48.796;11.978;2022-09-03T14:29:49;2.00;;;1.77;;
25349;SDS011;13302;48.796;11.978;2022-09-03T14:36:16;2.00;;;1.63;;
25349;SDS011;13302;48.796;11.978;2022-09-03T14:39:32;1.70;;;1.60;;
25349;SDS011;13302;48.796;11.978;2022-09-03T14:42:52;1.30;;;1.30;;
25349;SDS011;13302;48.796;11.978;2022-09-03T14:46:38;1.83;;;1.73;;
25349;SDS011;13302;48.796;11.978;2022-09-03T14:52:41;1.70;;;1.60;;
25349;SDS011;13302;48.796;11.978;2022-09-03T14:55:53;1.70;;;1.60;;
25349;SDS011;13302;48.796;11.978;2022-09-03T14:58:57;2.00;;;1.70;;
25349;SDS011;13302;48.796;11.978;2022-09-03T15:01:48;2.93;;;1.80;;
25349;SDS011;13302;48.796;11.978;2022-09-03T15:05:01;2.00;;;1.90;;
25349;SDS011;13302;48.796;11.978;2022-09-03T15:07:59;1.70;;;1.70;;
25349;SDS011;13302;48.796;11.978;2022-09-03T15:10:57;1.80;;;1.63;;
25349;SDS011;13302;48.796;11.978;2022-09-03T15:14:09;1.77;;;1.70;;
25349;SDS011;13302;48.796;11.978;2022-09-03T15:23:28;2.10;;;2.00;;
25349;SDS011;13302;48.796;11.978;2022-09-03T15:26:38;2.37;;;2.27;;
25349;SDS011;13302;48.796;11.978;2022-09-03T15:29:47;1.87;;;1.77;;
25349;SDS011;13302;48.796;11.978;2022-09-03T15:35:55;1.30;;;1.30;;
25349;SDS011;13302;48.796;11.978;2022-09-03T15:38:59;1.50;;;1.40;;
25349;SDS011;13302;48.796;11.978;2022-09-03T15:41:52;1.40;;;1.30;;
25349;SDS011;13302;48.796;11.978;2022-09-03T15:44:44;1.47;;;1.37;;
25349;SDS011;13302;48.796;11.978;2022-09-03T15:54:08;1.33;;;1.33;;
25349;SDS011;13302;48.796;11.978;2022-09-03T15:57:06;1.20;;;1.20;;
25349;SDS011;13302;48.796;11.978;2022-09-03T16:03:05;1.30;;;1.30;;
25349;SDS011;13302;48.796;11.978;2022-09-03T16:06:17;1.33;;;1.33;;
25349;SDS011;13302;48.796;11.978;2022-09-03T16:13:07;1.50;;;1.50;;
25349;SDS011;13302;48.796;11.978;2022-09-03T16:16:10;1.53;;;1.43;;
25349;SDS011;13302;48.796;11.978;2022-09-03T16:19:04;1.40;;;1.40;;
25349;SDS011;13302;48.796;11.978;2022-09-03T16:21:59;1.30;;;1.30;;
25349;SDS011;13302;48.796;11.978;2022-09-03T16:25:43;1.20;;;1.20;;
25349;SDS011;13302;48.796;11.978;2022-09-03T16:28:17;1.43;;;1.43;;
25349;SDS011;13302;48.796;11.978;2022-09-03T16:46:49;1.70;;;1.60;;
25349;SDS011;13302;48.796;11.978;2022-09-03T16:53:01;1.97;;;1.70;;
25349;SDS011;13302;48.796;11.978;2022-09-03T17:08:42;1.03;;;1.03;;
25349;SDS011;13302;48.796;11.978;2022-09-03T17:11:42;1.10;;;1.10;;
25349;SDS011;13302;48.796;11.978;2022-09-03T17:14:38;2.03;;;1.00;;
25349;SDS011;13302;48.796;11.978;2022-09-03T17:42:04;2.77;;;1.07;;
25349;SDS011;13302;48.796;11.978;2022-09-03T17:48:35;3.40;;;0.90;;
25349;SDS011;13302;48.796;11.978;2022-09-03T17:51:43;0.80;;;0.80;;
25349;SDS011;13302;48.796;11.978;2022-09-03T17:54:40;1.40;;;0.97;;
25349;SDS011;13302;48.796;11.978;2022-09-03T17:57:36;0.83;;;0.83;;
25349;SDS011;13302;48.796;11.978;2022-09-03T18:00:34;0.80;;;0.80;;
25349;SDS011;13302;48.796;11.978;2022-09-03T18:03:27;0.83;;;0.83;;
25349;SDS011;13302;48.796;11.978;2022-09-03T18:12:05;1.33;;;1.23;;
25349;SDS011;13302;48.796;11.978;2022-09-03T18:15:06;1.10;;;1.03;;
25349;SDS011;13302;48.796;11.978;2022-09-03T18:21:07;1.10;;;0.80;;
25349;SDS011;13302;48.796;11.978;2022-09-03T18:24:20;1.20;;;1.20;;
25349;SDS011;13302;48.796;11.978;2022-09-03T18:27:47;0.83;;;0.77;;
25349;SDS011;13302;48.796;11.978;2022-09-03T18:30:58;0.90;;;0.90;;
25349;SDS011;13302;48.796;11.978;2022-09-03T18:34:04;0.80;;;0.80;;
25349;SDS011;13302;48.796;11.978;2022-09-03T18:37:10;0.70;;;0.70;;
25349;SDS011;13302;48.796;11.978;2022-09-03T18:40:17;0.70;;;0.70;;
25349;SDS011;13302;48.796;11.978;2022-09-03T18:43:39;1.07;;;1.07;;
25349;SDS011;13302;48.796;11.978;2022-09-03T18:46:58;0.90;;;0.90;;
25349;SDS011;13302;48.796;11.978;2022-09-03T18:54:49;1.07;;;1.07;;
25349;SDS011;13302;48.796;11.978;2022-09-03T19:01:37;1.00;;;1.00;;
25349;SDS011;13302;48.796;11.978;2022-09-03T19:08:00;0.90;;;0.90;;
25349;SDS011;13302;48.796;11.978;2022-09-03T19:11:29;1.17;;;1.17;;
25349;SDS011;13302;48.796;11.978;2022-09-03T19:18:29;0.80;;;0.80;;
25349;SDS011;13302;48.796;11.978;2022-09-03T19:25:04;0.80;;;0.80;;
25349;SDS011;13302;48.796;11.978;2022-09-03T19:31:27;0.97;;;0.90;;
25349;SDS011;13302;48.796;11.978;2022-09-03T19:34:54;0.80;;;0.80;;
25349;SDS011;13302;48.796;11.978;2022-09-03T19:41:42;1.20;;;1.10;;
25349;SDS011;13302;48.796;11.978;2022-09-03T19:48:18;1.20;;;1.10;;
25349;SDS011;13302;48.796;11.978;2022-09-03T19:51:39;1.30;;;1.20;;
25349;SDS011;13302;48.796;11.978;2022-09-03T19:54:49;1.40;;;1.30;;
25349;SDS011;13302;48.796;11.978;2022-09-03T19:57:58;1.33;;;1.20;;
25349;SDS011;13302;48.796;11.978;2022-09-03T20:01:28;1.17;;;1.10;;
25349;SDS011;13302;48.796;11.978;2022-09-03T20:04:42;1.43;;;1.20;;
25349;SDS011;13302;48.796;11.978;2022-09-03T20:07:53;1.27;;;1.27;;
25349;SDS011;13302;48.796;11.978;2022-09-03T20:11:01;2.13;;;1.40;;
25349;SDS011;13302;48.796;11.978;2022-09-03T20:13:57;1.63;;;1.27;;
25349;SDS011;13302;48.796;11.978;2022-09-03T20:17:08;3.20;;;1.57;;
25349;SDS011;13302;48.796;11.978;2022-09-03T20:20:15;1.57;;;1.47;;
25349;SDS011;13302;48.796;11.978;2022-09-03T20:23:18;1.33;;;1.23;;
25349;SDS011;13302;48.796;11.978;2022-09-03T20:38:51;2.17;;;1.50;;
25349;SDS011;13302;48.796;11.978;2022-09-03T20:41:48;1.57;;;1.40;;
25349;SDS011;13302;48.796;11.978;2022-09-03T20:44:52;1.80;;;1.37;;
25349;SDS011;13302;48.796;11.978;2022-09-03T20:51:08;1.47;;;1.47;;
25349;SDS011;13302;48.796;11.978;2022-09-03T21:00:16;3.43;;;1.30;;
25349;SDS011;13302;48.796;11.978;2022-09-03T21:03:08;1.40;;;1.30;;
25349;SDS011;13302;48.796;11.978;2022-09-03T21:06:06;1.33;;;1.33;;
25349;SDS011;13302;48.796;11.978;2022-09-03T21:09:13;1.40;;;1.40;;
25349;SDS011;13302;48.796;11.978;2022-09-03T21:12:33;1.70;;;1.60;;
25349;SDS011;13302;48.796;11.978;2022-09-03T21:24:52;1.80;;;1.70;;
25349;SDS011;13302;48.796;11.978;2022-09-03T21:27:45;1.30;;;1.30;;
25349;SDS011;13302;48.796;11.978;2022-09-03T21:30:38;2.90;;;1.50;;
25349;SDS011;13302;48.796;11.978;2022-09-03T21:33:28;1.80;;;1.70;;
25349;SDS011;13302;48.796;11.978;2022-09-03T21:36:28;1.67;;;1.67;;
25349;SDS011;13302;48.796;11.978;2022-09-03T21:39:21;1.70;;;1.60;;
25349;SDS011;13302;48.796;11.978;2022-09-03T21:42:18;1.53;;;1.50;;
25349;SDS011;13302;48.796;11.978;2022-09-03T21:48:34;1.63;;;1.60;;
25349;SDS011;13302;48.796;11.978;2022-09-03T21:51:28;3.17;;;1.80;;
25349;SDS011;13302;48.796;11.978;2022-09-03T21:54:22;1.87;;;1.80;;
25349;SDS011;13302;48.796;11.978;2022-09-03T22:00:17;2.43;;;1.80;;
25349;SDS011;13302;48.796;11.978;2022-09-03T22:03:06;1.93;;;1.83;;
25349;SDS011;13302;48.796;11.978;2022-09-03T22:06:00;2.03;;;1.90;;
25349;SDS011;13302;48.796;11.978;2022-09-03T22:09:11;1.80;;;1.70;;
25349;SDS011;13302;48.796;11.978;2022-09-03T22:15:12;2.47;;;1.97;;
25349;SDS011;13302;48.796;11.978;2022-09-03T22:18:03;2.30;;;2.10;;
25349;SDS011;13302;48.796;11.978;2022-09-03T22:21:12;2.17;;;2.07;;
25349;SDS011;13302;48.796;11.978;2022-09-03T22:24:11;1.87;;;1.77;;
25349;SDS011;13302;48.796;11.978;2022-09-03T22:30:21;2.23;;;2.07;;